Time;durP1;ratioP1;P1;durP2;ratioP2;P2;SDS_P1;SDS_P2;PMS_P1;PMS_P2;Temp;Humidity;BMP_temperature;BMP_pressure;BME280_temperature;BME280_humidity;BME280_pressure;Samples;Min_cycle;Max_cycle;Signal;HPM_P1;HPM_P2
2022/12/31 00:00:56;;;;;;;16.55;8.32;;;;;;;;;;5047021;28;20044;-78
2022/12/31 00:03:22;;;;;;;18.58;8.18;;;;;;;;;;5044283;28;20026;-78
2022/12/31 00:05:48;;;;;;;17.15;8.48;;;;;;;;;;5044296;28;20065;-77
2022/12/31 00:08:14;;;;;;;19.70;10.35;;;;;;;;;;5044488;28;20070;-78
2022/12/31 00:10:40;;;;;;;17.85;10.25;;;;;;;;;;5041301;28;20021;-79
2022/12/31 00:13:07;;;;;;;21.02;8.00;;;;;;;;;;5047869;28;20071;-78
2022/12/31 00:15:34;;;;;;;18.85;7.88;;;;;;;;;;5043598;28;20782;-79
2022/12/31 00:18:00;;;;;;;10.60;6.05;;;;;;;;;;5048639;28;20037;-80
2022/12/31 00:20:26;;;;;;;15.13;6.97;;;;;;;;;;5048077;28;20489;-79
2022/12/31 00:22:52;;;;;;;17.60;6.40;;;;;;;;;;5046372;28;20033;-78
2022/12/31 00:25:18;;;;;;;11.10;5.53;;;;;;;;;;5046924;28;20005;-78
2022/12/31 00:27:44;;;;;;;9.43;6.45;;;;;;;;;;5045783;28;20124;-78
2022/12/31 00:30:12;;;;;;;8.90;4.55;;;;;;;;;;5044603;28;20033;-80
2022/12/31 00:32:38;;;;;;;10.38;4.20;;;;;;;;;;5051853;28;20024;-78
2022/12/31 00:35:05;;;;;;;13.88;6.35;;;;;;;;;;5054508;28;20050;-79
2022/12/31 00:37:31;;;;;;;11.02;4.13;;;;;;;;;;5049638;28;20117;-78
2022/12/31 00:39:57;;;;;;;12.82;4.65;;;;;;;;;;5044798;28;20029;-78
2022/12/31 00:42:23;;;;;;;9.70;4.30;;;;;;;;;;5051960;28;20057;-78
2022/12/31 00:44:49;;;;;;;8.38;4.38;;;;;;;;;;5049795;28;20479;-78
2022/12/31 00:47:15;;;;;;;11.73;3.88;;;;;;;;;;5051627;28;20721;-78
2022/12/31 00:49:41;;;;;;;9.82;4.10;;;;;;;;;;5049508;28;20028;-78
2022/12/31 00:52:07;;;;;;;8.90;3.97;;;;;;;;;;5041904;28;20116;-78
2022/12/31 00:54:33;;;;;;;9.90;5.32;;;;;;;;;;5039049;28;20028;-78
2022/12/31 00:56:59;;;;;;;13.13;6.05;;;;;;;;;;5041617;28;20038;-78
2022/12/31 00:59:25;;;;;;;11.80;6.15;;;;;;;;;;5042994;28;20605;-78
2022/12/31 01:01:52;;;;;;;13.30;4.68;;;;;;;;;;5041296;28;20384;-79
2022/12/31 01:04:20;;;;;;;11.73;4.40;;;;;;;;;;5041730;28;20068;-78
2022/12/31 01:06:46;;;;;;;11.57;5.38;;;;;;;;;;5040135;28;20087;-79
2022/12/31 01:09:14;;;;;;;9.50;5.13;;;;;;;;;;5042318;28;20439;-78
2022/12/31 01:11:40;;;;;;;12.57;6.07;;;;;;;;;;5041798;28;20027;-78
2022/12/31 01:14:11;;;;;;;20.80;9.77;;;;;;;;;;5039003;28;20020;-79
2022/12/31 01:16:45;;;;;;;17.02;5.97;;;;;;;;;;5037904;28;20036;-78
2022/12/31 01:19:12;;;;;;;9.25;4.10;;;;;;;;;;5037718;28;20033;-79
2022/12/31 01:21:39;;;;;;;11.70;4.75;;;;;;;;;;5040750;28;20398;-78
2022/12/31 01:24:05;;;;;;;11.90;5.45;;;;;;;;;;5039104;28;20033;-78
2022/12/31 01:26:31;;;;;;;12.85;4.93;;;;;;;;;;5040560;28;20036;-78
2022/12/31 01:28:57;;;;;;;8.77;4.60;;;;;;;;;;5038280;28;20037;-78
2022/12/31 01:31:23;;;;;;;11.68;4.32;;;;;;;;;;5043030;28;20025;-78
2022/12/31 01:33:50;;;;;;;13.65;4.90;;;;;;;;;;5044610;28;20025;-78
2022/12/31 01:36:18;;;;;;;10.57;4.88;;;;;;;;;;5042638;28;20049;-78
2022/12/31 01:38:44;;;;;;;12.63;4.85;;;;;;;;;;5039847;28;20394;-79
2022/12/31 01:41:12;;;;;;;13.65;5.82;;;;;;;;;;5042076;28;20036;-78
2022/12/31 01:43:54;;;;;;;11.77;6.20;;;;;;;;;;5042609;28;20574;-79
2022/12/31 01:46:24;;;;;;;11.60;6.38;;;;;;;;;;5041691;28;20035;-78
2022/12/31 01:48:52;;;;;;;14.10;5.80;;;;;;;;;;5041023;28;20025;-78
2022/12/31 01:51:19;;;;;;;13.73;4.75;;;;;;;;;;5042775;28;20031;-78
2022/12/31 01:53:45;;;;;;;9.93;4.97;;;;;;;;;;5042008;28;20040;-78
2022/12/31 01:56:11;;;;;;;11.93;5.32;;;;;;;;;;5043302;28;20183;-79
2022/12/31 01:58:39;;;;;;;14.52;5.35;;;;;;;;;;5043305;28;20445;-77
2022/12/31 02:01:07;;;;;;;10.10;5.82;;;;;;;;;;5043288;28;20025;-78
2022/12/31 02:03:33;;;;;;;12.90;6.43;;;;;;;;;;5039832;28;20682;-78
2022/12/31 02:06:17;;;;;;;15.18;6.45;;;;;;;;;;5042480;28;20029;-78
2022/12/31 02:08:44;;;;;;;13.40;7.00;;;;;;;;;;5045093;28;20057;-78
2022/12/31 02:11:20;;;;;;;13.23;7.60;;;;;;;;;;5041605;28;20140;-77
2022/12/31 02:13:46;;;;;;;16.83;7.57;;;;;;;;;;5041181;28;20032;-77
2022/12/31 02:16:16;;;;;;;18.38;6.38;;;;;;;;;;5041485;28;20143;-77
2022/12/31 02:18:51;;;;;;;17.38;6.32;;;;;;;;;;5041875;28;20382;-78
2022/12/31 02:21:17;;;;;;;10.32;4.95;;;;;;;;;;5038605;28;20029;-78
2022/12/31 02:23:49;;;;;;;12.20;5.35;;;;;;;;;;5043851;28;20052;-77
2022/12/31 02:26:34;;;;;;;11.05;4.80;;;;;;;;;;5039891;28;20368;-78
2022/12/31 02:29:18;;;;;;;13.80;4.55;;;;;;;;;;5042492;28;20561;-78
2022/12/31 02:31:46;;;;;;;8.88;4.75;;;;;;;;;;5042319;28;20055;-77
2022/12/31 02:34:19;;;;;;;13.35;5.00;;;;;;;;;;5042245;28;20099;-78
2022/12/31 02:36:46;;;;;;;13.00;5.13;;;;;;;;;;5040393;28;20033;-78
2022/12/31 02:39:13;;;;;;;9.55;4.88;;;;;;;;;;5040130;28;20487;-78
2022/12/31 02:41:52;;;;;;;10.15;5.50;;;;;;;;;;5037070;28;20441;-78
2022/12/31 02:44:26;;;;;;;11.93;4.85;;;;;;;;;;5040828;28;20502;-79
2022/12/31 02:47:01;;;;;;;11.52;5.55;;;;;;;;;;5040808;28;20029;-79
2022/12/31 02:49:27;;;;;;;;;;;;;;;;;;5038431;28;20390;-78
2022/12/31 02:51:53;;;;;;;;;;;;;;;;;;5044923;28;19917;-79
2022/12/31 02:54:42;;;;;;;7.15;3.85;;;;;;;;;;5043704;28;19917;-78
2022/12/31 02:57:35;;;;;;;15.02;4.35;;;;;;;;;;5047795;28;20032;-78
2022/12/31 03:02:52;;;;;;;8.73;3.78;;;;;;;;;;5039118;28;20087;-78
2022/12/31 03:05:20;;;;;;;10.20;3.45;;;;;;;;;;5038385;28;20604;-79
2022/12/31 03:07:46;;;;;;;9.23;3.38;;;;;;;;;;5037670;28;20112;-77
2022/12/31 03:10:12;;;;;;;8.15;3.25;;;;;;;;;;5039053;28;20399;-79
2022/12/31 03:12:45;;;;;;;7.85;3.40;;;;;;;;;;5035219;28;20456;-79
2022/12/31 03:15:19;;;;;;;11.20;3.50;;;;;;;;;;5040631;28;20487;-77
2022/12/31 03:17:51;;;;;;;9.63;3.05;;;;;;;;;;5039395;28;20028;-78
2022/12/31 03:23:04;;;;;;;6.90;2.72;;;;;;;;;;5039212;28;20490;-79
2022/12/31 03:25:39;;;;;;;9.07;3.10;;;;;;;;;;5037892;28;20033;-77
2022/12/31 03:28:07;;;;;;;6.70;3.10;;;;;;;;;;5040633;28;20048;-78
2022/12/31 03:30:34;;;;;;;9.70;3.35;;;;;;;;;;5039309;28;20051;-78
2022/12/31 03:33:00;;;;;;;5.63;2.78;;;;;;;;;;5038629;28;20025;-77
2022/12/31 03:35:28;;;;;;;9.45;3.10;;;;;;;;;;5041674;28;20057;-80
2022/12/31 03:37:55;;;;;;;6.47;2.70;;;;;;;;;;5036061;28;20029;-78
2022/12/31 03:40:21;;;;;;;8.43;3.33;;;;;;;;;;5036665;28;20106;-78
2022/12/31 03:42:48;;;;;;;6.88;3.10;;;;;;;;;;5036357;28;20029;-79
2022/12/31 03:45:14;;;;;;;9.57;2.75;;;;;;;;;;5036152;28;20442;-77
2022/12/31 03:47:40;;;;;;;7.93;2.60;;;;;;;;;;5040162;28;20084;-78
2022/12/31 03:50:07;;;;;;;8.50;3.03;;;;;;;;;;5039207;28;20032;-79
2022/12/31 03:52:33;;;;;;;7.60;3.30;;;;;;;;;;5041512;28;20023;-79
2022/12/31 03:55:00;;;;;;;5.45;2.70;;;;;;;;;;5043935;28;20045;-79
2022/12/31 03:57:27;;;;;;;6.05;3.45;;;;;;;;;;5061021;28;20008;-80
2022/12/31 03:59:53;;;;;;;7.78;3.15;;;;;;;;;;5058708;28;20025;-79
2022/12/31 04:02:19;;;;;;;8.65;2.80;;;;;;;;;;5054450;28;20079;-78
2022/12/31 04:04:45;;;;;;;6.43;2.92;;;;;;;;;;5045713;28;20035;-78
2022/12/31 04:07:11;;;;;;;6.47;2.78;;;;;;;;;;5046503;28;20025;-78
2022/12/31 04:09:37;;;;;;;6.28;2.75;;;;;;;;;;5040460;28;20037;-78
2022/12/31 04:12:03;;;;;;;4.75;2.45;;;;;;;;;;5039163;28;20467;-79
2022/12/31 04:14:29;;;;;;;7.78;3.20;;;;;;;;;;5041384;28;20037;-78
2022/12/31 04:16:55;;;;;;;9.45;3.22;;;;;;;;;;5038976;28;20503;-79
2022/12/31 04:19:21;;;;;;;4.03;2.70;;;;;;;;;;5037042;28;20029;-78
2022/12/31 04:21:48;;;;;;;6.80;2.83;;;;;;;;;;5039621;28;20064;-78
2022/12/31 04:24:14;;;;;;;8.43;3.45;;;;;;;;;;5040403;28;20203;-79
2022/12/31 04:26:40;;;;;;;6.82;2.85;;;;;;;;;;5040837;28;20124;-79
2022/12/31 04:29:06;;;;;;;8.75;3.30;;;;;;;;;;5040576;28;20025;-79
2022/12/31 04:31:32;;;;;;;8.20;3.90;;;;;;;;;;5040537;28;20021;-78
2022/12/31 04:33:58;;;;;;;10.52;3.50;;;;;;;;;;5038357;28;20453;-78
2022/12/31 04:36:24;;;;;;;6.75;3.10;;;;;;;;;;5043168;28;20086;-78
2022/12/31 04:38:50;;;;;;;10.30;3.33;;;;;;;;;;5041504;28;20040;-79
2022/12/31 04:41:16;;;;;;;11.18;4.18;;;;;;;;;;5047255;28;20055;-79
2022/12/31 04:43:45;;;;;;;8.13;3.00;;;;;;;;;;5052949;28;20084;-78
2022/12/31 04:46:12;;;;;;;6.40;3.20;;;;;;;;;;5049188;28;20056;-79
2022/12/31 04:48:38;;;;;;;7.20;3.20;;;;;;;;;;5053674;28;20026;-78
2022/12/31 04:51:04;;;;;;;9.15;3.72;;;;;;;;;;5048760;28;20067;-79
2022/12/31 04:53:31;;;;;;;10.13;4.07;;;;;;;;;;5051741;28;20119;-78
2022/12/31 04:55:57;;;;;;;6.15;2.83;;;;;;;;;;5057412;28;20106;-80
2022/12/31 04:58:23;;;;;;;7.10;3.42;;;;;;;;;;5060769;28;20025;-79
2022/12/31 05:00:53;;;;;;;3.70;3.05;;;;;;;;;;5056352;28;20055;-78
2022/12/31 05:03:19;;;;;;;11.95;3.85;;;;;;;;;;5058362;28;20044;-78
2022/12/31 05:05:45;;;;;;;7.05;3.55;;;;;;;;;;5048957;28;20033;-78
2022/12/31 05:08:12;;;;;;;6.40;3.40;;;;;;;;;;5042128;28;20028;-78
2022/12/31 05:10:41;;;;;;;6.47;3.55;;;;;;;;;;5041719;28;20701;-78
2022/12/31 05:13:08;;;;;;;9.25;4.40;;;;;;;;;;5039957;28;20033;-78
2022/12/31 05:15:34;;;;;;;11.20;4.20;;;;;;;;;;5042689;28;20497;-78
2022/12/31 05:18:00;;;;;;;8.45;3.55;;;;;;;;;;5041827;28;20025;-79
2022/12/31 05:20:26;;;;;;;9.98;4.20;;;;;;;;;;5040237;28;20097;-78
2022/12/31 05:22:52;;;;;;;6.53;3.25;;;;;;;;;;5044042;28;20021;-79
2022/12/31 05:25:18;;;;;;;8.68;3.83;;;;;;;;;;5039343;28;20021;-78
2022/12/31 05:27:44;;;;;;;7.90;3.70;;;;;;;;;;5042251;28;20049;-79
2022/12/31 05:30:11;;;;;;;8.77;4.15;;;;;;;;;;5036100;28;20665;-79
2022/12/31 05:32:37;;;;;;;7.22;3.78;;;;;;;;;;5037902;28;20435;-78
2022/12/31 05:35:03;;;;;;;10.90;5.20;;;;;;;;;;5037871;28;20087;-78
2022/12/31 05:37:29;;;;;;;8.65;4.07;;;;;;;;;;5039475;28;20108;-77
2022/12/31 05:39:55;;;;;;;7.47;3.80;;;;;;;;;;5041117;28;20434;-77
2022/12/31 05:42:22;;;;;;;12.82;5.03;;;;;;;;;;5040905;28;20049;-78
2022/12/31 05:44:48;;;;;;;10.77;4.25;;;;;;;;;;5038189;28;20028;-78
2022/12/31 05:47:14;;;;;;;14.35;4.53;;;;;;;;;;5038799;28;20028;-78
2022/12/31 05:49:40;;;;;;;7.68;4.13;;;;;;;;;;5041175;28;20021;-79
2022/12/31 05:52:08;;;;;;;9.50;4.72;;;;;;;;;;5038483;28;20036;-79
2022/12/31 05:54:35;;;;;;;9.93;4.22;;;;;;;;;;5036494;28;20028;-79
2022/12/31 05:57:01;;;;;;;7.28;4.60;;;;;;;;;;5040908;28;20291;-79
2022/12/31 05:59:27;;;;;;;8.93;5.55;;;;;;;;;;5035984;28;20032;-78
2022/12/31 06:01:53;;;;;;;8.10;5.05;;;;;;;;;;5040587;28;20025;-79
2022/12/31 06:04:19;;;;;;;9.85;5.60;;;;;;;;;;5039677;28;20519;-78
2022/12/31 06:06:45;;;;;;;8.35;4.63;;;;;;;;;;5039421;28;20028;-79
2022/12/31 06:09:11;;;;;;;11.90;4.20;;;;;;;;;;5036178;28;20037;-78
2022/12/31 06:11:37;;;;;;;5.65;3.50;;;;;;;;;;5040184;28;20048;-78
2022/12/31 06:14:03;;;;;;;9.52;3.80;;;;;;;;;;5036978;28;20112;-79
2022/12/31 06:16:29;;;;;;;6.07;3.90;;;;;;;;;;5041584;28;20033;-78
2022/12/31 06:18:56;;;;;;;8.32;4.00;;;;;;;;;;5042025;28;20051;-78
2022/12/31 06:21:22;;;;;;;11.15;4.00;;;;;;;;;;5040802;28;20029;-79
2022/12/31 06:23:48;;;;;;;6.60;3.55;;;;;;;;;;5034272;28;20025;-78
2022/12/31 06:26:14;;;;;;;6.95;4.50;;;;;;;;;;5035443;28;20119;-78
2022/12/31 06:28:41;;;;;;;10.88;4.22;;;;;;;;;;5045701;28;20208;-78
2022/12/31 06:31:10;;;;;;;11.90;4.15;;;;;;;;;;5041027;28;20063;-79
2022/12/31 06:33:36;;;;;;;6.80;3.50;;;;;;;;;;5039398;28;20024;-79
2022/12/31 06:36:03;;;;;;;11.07;5.22;;;;;;;;;;5040614;28;20029;-78
2022/12/31 06:38:30;;;;;;;10.77;5.28;;;;;;;;;;5039538;28;20033;-78
2022/12/31 06:40:56;;;;;;;11.13;5.40;;;;;;;;;;5043380;28;20028;-80
2022/12/31 06:43:22;;;;;;;9.88;5.50;;;;;;;;;;5039016;28;20383;-78
2022/12/31 06:45:49;;;;;;;8.50;4.13;;;;;;;;;;5039580;28;20535;-79
2022/12/31 06:48:15;;;;;;;7.25;4.18;;;;;;;;;;5038632;28;20581;-79
2022/12/31 06:50:41;;;;;;;8.38;4.10;;;;;;;;;;5040606;28;20021;-79
2022/12/31 06:53:07;;;;;;;6.25;3.78;;;;;;;;;;5037204;28;20055;-79
2022/12/31 06:55:33;;;;;;;7.10;3.65;;;;;;;;;;5041530;28;20035;-78
2022/12/31 06:57:59;;;;;;;6.72;3.55;;;;;;;;;;5038275;28;20038;-78
2022/12/31 07:00:25;;;;;;;4.40;3.35;;;;;;;;;;5038374;28;20110;-79
2022/12/31 07:03:04;;;;;;;6.65;3.45;;;;;;;;;;5040153;28;20045;-78
2022/12/31 07:05:43;;;;;;;12.23;4.50;;;;;;;;;;5041153;28;20633;-77
2022/12/31 07:08:18;;;;;;;5.72;3.95;;;;;;;;;;5040930;28;20499;-78
2022/12/31 07:11:06;;;;;;;9.48;3.72;;;;;;;;;;5039964;28;20060;-79
2022/12/31 07:13:44;;;;;;;8.02;4.05;;;;;;;;;;5041267;28;20053;-79
2022/12/31 07:16:17;;;;;;;8.93;3.13;;;;;;;;;;5039007;28;20048;-79
2022/12/31 07:18:43;;;;;;;5.82;3.53;;;;;;;;;;5038437;28;20679;-77
2022/12/31 07:21:12;;;;;;;8.88;4.00;;;;;;;;;;5040437;28;20483;-77
2022/12/31 07:23:39;;;;;;;4.63;3.53;;;;;;;;;;5042308;28;20538;-78
2022/12/31 07:26:10;;;;;;;9.35;3.22;;;;;;;;;;5043876;28;20033;-79
2022/12/31 07:28:46;;;;;;;6.30;3.75;;;;;;;;;;5040141;28;20466;-79
2022/12/31 07:31:51;;;;;;;6.25;3.20;;;;;;;;;;5037562;28;20029;-78
2022/12/31 07:34:43;;;;;;;8.77;3.30;;;;;;;;;;4994866;28;20237;-79
2022/12/31 07:37:47;;;;;;;6.93;3.17;;;;;;;;;;4995561;28;20136;-78
2022/12/31 07:40:23;;;;;;;7.68;3.50;;;;;;;;;;4998381;28;20037;-78
2022/12/31 07:43:04;;;;;;;5.70;4.10;;;;;;;;;;5000336;28;20037;-78
2022/12/31 07:45:30;;;;;;;5.00;3.15;;;;;;;;;;5014701;28;20103;-77
2022/12/31 07:47:56;;;;;;;5.60;3.20;;;;;;;;;;5038627;28;20445;-79
2022/12/31 07:50:22;;;;;;;6.10;3.42;;;;;;;;;;5061475;28;20033;-80
2022/12/31 07:52:48;;;;;;;9.00;2.90;;;;;;;;;;5061664;28;20153;-79
2022/12/31 07:55:15;;;;;;;5.57;3.58;;;;;;;;;;5060577;28;20100;-78
2022/12/31 07:58:20;;;;;;;7.68;3.50;;;;;;;;;;5045976;28;20029;-80
2022/12/31 08:00:46;;;;;;;3.95;3.00;;;;;;;;;;4971304;28;20979;-78
2022/12/31 08:03:12;;;;;;;7.68;3.47;;;;;;;;;;4965592;28;20105;-79
2022/12/31 08:05:38;;;;;;;5.85;3.13;;;;;;;;;;5001581;28;20509;-77
2022/12/31 08:08:20;;;;;;;8.40;4.18;;;;;;;;;;5039766;28;20383;-78
2022/12/31 08:11:05;;;;;;;5.93;2.90;;;;;;;;;;5042012;28;20025;-79
2022/12/31 08:13:31;;;;;;;6.30;3.15;;;;;;;;;;5041729;28;20048;-78
2022/12/31 08:15:57;;;;;;;5.65;3.20;;;;;;;;;;5040165;28;20033;-79
2022/12/31 08:18:23;;;;;;;3.38;2.58;;;;;;;;;;5038631;28;20032;-79
2022/12/31 08:20:59;;;;;;;5.70;2.97;;;;;;;;;;5036562;28;20063;-78
2022/12/31 08:23:31;;;;;;;7.07;2.92;;;;;;;;;;5039314;28;20511;-80
2022/12/31 08:26:16;;;;;;;4.93;3.72;;;;;;;;;;5042749;28;20232;-78
2022/12/31 08:28:45;;;;;;;6.63;3.28;;;;;;;;;;5040631;28;20044;-79
2022/12/31 08:31:11;;;;;;;7.70;3.35;;;;;;;;;;5046729;28;20025;-80
2022/12/31 08:33:49;;;;;;;4.85;3.03;;;;;;;;;;5043595;28;20025;-79
2022/12/31 08:36:28;;;;;;;6.10;3.78;;;;;;;;;;5041131;28;20120;-78
2022/12/31 08:39:12;;;;;;;8.80;3.92;;;;;;;;;;5044218;28;20399;-78
2022/12/31 08:41:42;;;;;;;8.52;4.50;;;;;;;;;;5042532;28;20029;-79
2022/12/31 08:44:17;;;;;;;7.50;3.97;;;;;;;;;;5044862;28;20025;-79
2022/12/31 08:46:46;;;;;;;7.63;3.50;;;;;;;;;;5043920;28;20029;-79
2022/12/31 08:49:13;;;;;;;7.07;3.58;;;;;;;;;;5043062;28;20033;-78
2022/12/31 08:51:39;;;;;;;7.50;3.50;;;;;;;;;;5040365;28;20372;-78
2022/12/31 08:54:06;;;;;;;7.82;3.50;;;;;;;;;;5043032;28;20037;-78
2022/12/31 08:56:34;;;;;;;6.53;3.58;;;;;;;;;;5044411;28;20016;-78
2022/12/31 08:59:07;;;;;;;10.38;4.45;;;;;;;;;;5043356;28;20059;-78
2022/12/31 09:01:53;;;;;;;5.68;3.83;;;;;;;;;;5049546;28;20116;-78
2022/12/31 09:04:35;;;;;;;7.25;4.20;;;;;;;;;;5037970;28;20036;-79
2022/12/31 09:07:03;;;;;;;8.40;4.57;;;;;;;;;;5043391;28;20044;-78
2022/12/31 09:09:48;;;;;;;6.97;4.28;;;;;;;;;;5062609;28;20025;-78
2022/12/31 09:12:17;;;;;;;8.60;4.30;;;;;;;;;;5060658;28;20103;-79
2022/12/31 09:14:49;;;;;;;8.63;4.30;;;;;;;;;;5066783;28;20021;-79
2022/12/31 09:17:37;;;;;;;7.93;4.45;;;;;;;;;;5055094;28;20029;-78
2022/12/31 09:20:04;;;;;;;7.55;3.65;;;;;;;;;;5064810;28;20025;-79
2022/12/31 09:22:30;;;;;;;12.07;3.78;;;;;;;;;;5059642;28;20040;-79
2022/12/31 09:24:56;;;;;;;6.22;4.10;;;;;;;;;;5060184;28;20033;-79
2022/12/31 09:27:42;;;;;;;7.53;4.32;;;;;;;;;;5059265;28;20538;-78
2022/12/31 09:30:13;;;;;;;11.27;5.05;;;;;;;;;;5062048;28;20048;-79
2022/12/31 09:32:44;;;;;;;8.88;4.15;;;;;;;;;;5064551;28;20095;-78
2022/12/31 09:35:15;;;;;;;9.15;4.45;;;;;;;;;;5058268;28;20033;-79
2022/12/31 09:37:48;;;;;;;8.55;4.65;;;;;;;;;;5056927;28;20033;-79
2022/12/31 09:40:28;;;;;;;7.43;4.03;;;;;;;;;;5053060;28;20462;-78
2022/12/31 09:42:54;;;;;;;9.35;4.68;;;;;;;;;;5063250;28;20031;-77
2022/12/31 09:45:38;;;;;;;9.00;4.43;;;;;;;;;;5062258;28;20024;-77
2022/12/31 09:48:14;;;;;;;6.78;4.70;;;;;;;;;;5057566;28;20046;-77
2022/12/31 09:50:52;;;;;;;9.77;4.80;;;;;;;;;;5053444;28;20029;-78
2022/12/31 09:53:21;;;;;;;8.60;4.28;;;;;;;;;;5066023;28;20039;-78
2022/12/31 09:55:49;;;;;;;6.60;5.28;;;;;;;;;;5070426;28;20024;-78
2022/12/31 09:58:18;;;;;;;6.40;4.43;;;;;;;;;;5070719;28;20033;-78
2022/12/31 10:01:10;;;;;;;8.80;4.15;;;;;;;;;;5063766;28;20088;-78
2022/12/31 10:03:46;;;;;;;6.43;4.68;;;;;;;;;;5047630;28;20037;-77
2022/12/31 10:06:26;;;;;;;9.73;6.00;;;;;;;;;;5054567;28;20029;-78
2022/12/31 10:09:02;;;;;;;7.75;5.30;;;;;;;;;;5066764;28;20025;-80
2022/12/31 10:11:27;;;;;;;;;;;;;;;;;;5047330;28;20030;-79
2022/12/31 10:13:53;;;;;;;;;;;;;;;;;;5064785;28;19912;-79
2022/12/31 10:16:28;;;;;;;30.67;10.85;;;;;;;;;;5067790;28;19969;-78
2022/12/31 10:19:00;;;;;;;37.63;14.38;;;;;;;;;;5053790;28;20101;-78
2022/12/31 10:21:30;;;;;;;17.30;8.05;;;;;;;;;;5082970;28;20093;-78
2022/12/31 10:24:08;;;;;;;23.30;11.05;;;;;;;;;;5066178;28;20029;-79
2022/12/31 10:26:43;;;;;;;22.55;9.55;;;;;;;;;;5062685;28;20070;-76
2022/12/31 10:29:25;;;;;;;15.55;7.93;;;;;;;;;;5049398;28;20055;-78
2022/12/31 10:32:17;;;;;;;19.10;8.98;;;;;;;;;;5046638;28;20025;-77
2022/12/31 10:34:43;;;;;;;17.02;8.00;;;;;;;;;;5061635;28;20047;-77
2022/12/31 10:37:17;;;;;;;21.00;9.55;;;;;;;;;;5067677;28;20036;-78
2022/12/31 10:39:49;;;;;;;15.23;7.20;;;;;;;;;;5068071;28;20031;-78
2022/12/31 10:42:30;;;;;;;17.30;7.95;;;;;;;;;;5066960;28;20044;-78
2022/12/31 10:45:05;;;;;;;13.93;7.13;;;;;;;;;;5066663;28;20032;-78
2022/12/31 10:47:41;;;;;;;12.77;6.30;;;;;;;;;;5066715;28;20032;-78
2022/12/31 10:50:07;;;;;;;13.93;7.50;;;;;;;;;;5060709;28;20392;-78
2022/12/31 10:52:33;;;;;;;12.52;6.50;;;;;;;;;;5062025;28;20091;-78
2022/12/31 10:54:59;;;;;;;16.90;6.70;;;;;;;;;;5070912;28;20025;-78
2022/12/31 10:57:44;;;;;;;7.35;5.28;;;;;;;;;;5072233;28;20040;-79
2022/12/31 11:00:33;;;;;;;9.82;5.57;;;;;;;;;;5070985;28;20048;-78
2022/12/31 11:03:20;;;;;;;11.07;7.10;;;;;;;;;;5068552;28;20041;-78
2022/12/31 11:06:05;;;;;;;21.77;11.18;;;;;;;;;;5071695;28;20029;-78
2022/12/31 11:08:50;;;;;;;16.87;9.00;;;;;;;;;;5071842;28;20023;-78
2022/12/31 11:11:39;;;;;;;9.93;5.93;;;;;;;;;;5068811;28;20260;-77
2022/12/31 11:14:18;;;;;;;16.85;8.82;;;;;;;;;;5057801;28;20045;-77
2022/12/31 11:17:03;;;;;;;23.80;10.25;;;;;;;;;;5048011;28;20483;-76
2022/12/31 11:19:32;;;;;;;10.88;5.40;;;;;;;;;;5083355;28;20467;-77
2022/12/31 11:21:58;;;;;;;7.78;4.18;;;;;;;;;;5063759;28;20028;-77
2022/12/31 11:24:36;;;;;;;10.20;4.60;;;;;;;;;;5068055;28;20029;-78
2022/12/31 11:27:11;;;;;;;11.25;5.65;;;;;;;;;;5067865;28;20071;-78
2022/12/31 11:29:55;;;;;;;13.18;5.95;;;;;;;;;;5067057;28;20487;-79
2022/12/31 11:32:49;;;;;;;8.55;5.22;;;;;;;;;;5068255;28;20025;-78
2022/12/31 11:35:15;;;;;;;18.75;10.45;;;;;;;;;;5042154;28;20043;-78
2022/12/31 11:37:52;;;;;;;9.90;5.55;;;;;;;;;;5055467;23;20088;-78
2022/12/31 11:40:21;;;;;;;8.10;4.43;;;;;;;;;;5043638;28;20033;-77
2022/12/31 11:42:54;;;;;;;5.75;4.38;;;;;;;;;;5039858;28;20078;-78
2022/12/31 11:45:33;;;;;;;11.02;5.25;;;;;;;;;;5043759;28;20061;-78
2022/12/31 11:48:17;;;;;;;9.57;4.32;;;;;;;;;;5041269;28;20032;-78
2022/12/31 11:50:49;;;;;;;6.88;4.53;;;;;;;;;;5046172;28;20029;-79
2022/12/31 11:53:15;;;;;;;10.02;5.53;;;;;;;;;;5039308;28;20023;-78
2022/12/31 11:55:47;;;;;;;12.32;5.97;;;;;;;;;;5040431;28;20028;-78
2022/12/31 11:58:19;;;;;;;13.50;6.35;;;;;;;;;;5042237;28;20044;-78
2022/12/31 12:00:56;;;;;;;12.00;6.25;;;;;;;;;;5037018;28;20037;-80
2022/12/31 12:03:23;;;;;;;32.05;12.27;;;;;;;;;;5045559;28;20474;-80
2022/12/31 12:05:49;;;;;;;29.60;13.25;;;;;;;;;;5054139;28;20029;-79
2022/12/31 12:08:16;;;;;;;15.20;6.68;;;;;;;;;;5048485;28;20048;-78
2022/12/31 12:10:45;;;;;;;15.25;9.20;;;;;;;;;;5042181;28;20075;-78
2022/12/31 12:13:19;;;;;;;15.48;9.27;;;;;;;;;;5040803;28;20128;-79
2022/12/31 12:15:50;;;;;;;16.37;8.60;;;;;;;;;;5043906;28;20041;-78
2022/12/31 12:18:34;;;;;;;12.45;7.72;;;;;;;;;;5042032;28;20037;-77
2022/12/31 12:21:10;;;;;;;14.85;10.50;;;;;;;;;;5036420;28;20037;-77
2022/12/31 12:23:38;;;;;;;16.38;10.20;;;;;;;;;;5037986;28;20044;-79
2022/12/31 12:26:04;;;;;;;12.40;8.27;;;;;;;;;;5038239;28;20049;-77
2022/12/31 12:28:40;;;;;;;10.63;6.30;;;;;;;;;;5040012;28;20025;-77
2022/12/31 12:31:06;;;;;;;17.15;6.85;;;;;;;;;;5038063;28;20028;-77
2022/12/31 12:33:43;;;;;;;10.95;5.18;;;;;;;;;;5038017;28;20029;-77
2022/12/31 12:36:10;;;;;;;14.23;4.25;;;;;;;;;;5039633;28;20051;-77
2022/12/31 12:38:36;;;;;;;6.53;3.80;;;;;;;;;;5042796;28;20039;-77
2022/12/31 12:41:04;;;;;;;8.90;4.25;;;;;;;;;;5040568;28;20021;-77
2022/12/31 12:43:31;;;;;;;12.15;4.22;;;;;;;;;;5041541;28;20041;-76
2022/12/31 12:46:02;;;;;;;13.07;3.40;;;;;;;;;;5042433;28;20072;-77
2022/12/31 12:48:31;;;;;;;12.18;3.20;;;;;;;;;;5036624;28;20109;-78
2022/12/31 12:50:57;;;;;;;12.60;4.20;;;;;;;;;;5050509;28;21314;-78
2022/12/31 12:53:39;;;;;;;7.68;2.88;;;;;;;;;;5038775;28;20053;-76
2022/12/31 12:56:17;;;;;;;11.55;3.65;;;;;;;;;;5040753;28;20686;-77
2022/12/31 12:58:49;;;;;;;16.98;3.55;;;;;;;;;;5037624;28;20033;-77
2022/12/31 13:01:28;;;;;;;10.88;3.58;;;;;;;;;;5036423;28;20029;-77
2022/12/31 13:04:06;;;;;;;15.52;3.78;;;;;;;;;;5038587;28;20128;-76
2022/12/31 13:06:51;;;;;;;12.55;3.60;;;;;;;;;;5034297;28;20072;-78
2022/12/31 13:09:20;;;;;;;21.98;3.65;;;;;;;;;;5056294;28;20523;-77
2022/12/31 13:11:49;;;;;;;13.43;3.33;;;;;;;;;;5038567;28;20029;-76
2022/12/31 13:14:26;;;;;;;12.27;3.15;;;;;;;;;;5038993;28;20036;-76
2022/12/31 13:17:10;;;;;;;13.00;4.75;;;;;;;;;;5043861;28;20029;-75
2022/12/31 13:19:36;;;;;;;14.55;3.80;;;;;;;;;;5040159;28;20710;-75
2022/12/31 13:22:05;;;;;;;17.00;3.67;;;;;;;;;;5044751;28;20478;-75
2022/12/31 13:24:46;;;;;;;13.05;3.63;;;;;;;;;;5042113;28;20087;-79
2022/12/31 13:27:18;;;;;;;14.00;3.97;;;;;;;;;;5040462;28;20029;-77
2022/12/31 13:29:46;;;;;;;9.23;3.80;;;;;;;;;;5043491;28;20025;-75
2022/12/31 13:32:17;;;;;;;15.57;3.95;;;;;;;;;;5039436;28;20033;-77
2022/12/31 13:34:45;;;;;;;14.48;4.47;;;;;;;;;;5038525;28;20037;-77
2022/12/31 13:37:24;;;;;;;13.55;4.35;;;;;;;;;;5038580;28;20569;-77
2022/12/31 13:39:54;;;;;;;12.60;4.55;;;;;;;;;;5045131;28;20029;-77
2022/12/31 13:42:23;;;;;;;13.00;5.38;;;;;;;;;;5038968;28;20171;-75
2022/12/31 13:44:58;;;;;;;21.50;6.53;;;;;;;;;;5042068;28;20032;-77
2022/12/31 13:47:40;;;;;;;11.60;4.07;;;;;;;;;;5035716;28;20060;-77
2022/12/31 13:50:06;;;;;;;15.38;3.33;;;;;;;;;;5042334;28;20066;-75
2022/12/31 13:52:37;;;;;;;13.48;4.03;;;;;;;;;;5042182;28;20055;-75
2022/12/31 13:55:22;;;;;;;8.98;3.60;;;;;;;;;;5040637;28;20021;-77
2022/12/31 13:58:03;;;;;;;13.70;3.77;;;;;;;;;;5040614;28;20572;-78
2022/12/31 14:00:34;;;;;;;11.90;5.05;;;;;;;;;;5038269;28;20040;-77
2022/12/31 14:03:13;;;;;;;10.93;3.95;;;;;;;;;;5042069;28;20033;-77
2022/12/31 14:05:42;;;;;;;11.75;4.00;;;;;;;;;;5041670;28;20025;-77
2022/12/31 14:08:09;;;;;;;19.60;4.22;;;;;;;;;;5037728;28;20036;-77
2022/12/31 14:10:41;;;;;;;8.65;3.60;;;;;;;;;;5042793;28;20691;-78
2022/12/31 14:13:07;;;;;;;12.43;3.72;;;;;;;;;;5041070;28;20017;-78
2022/12/31 14:15:37;;;;;;;9.25;3.80;;;;;;;;;;5037941;28;20021;-74
2022/12/31 14:18:17;;;;;;;13.98;4.30;;;;;;;;;;5042435;28;20488;-74
2022/12/31 14:20:52;;;;;;;14.05;3.30;;;;;;;;;;5040784;28;20021;-78
2022/12/31 14:23:18;;;;;;;;;;;;;;;;;;5042335;28;20218;-78
2022/12/31 14:25:51;;;;;;;13.07;4.13;;;;;;;;;;5040070;28;21532;-77
2022/12/31 14:28:46;;;;;;;13.05;3.85;;;;;;;;;;5040254;28;20685;-78
2022/12/31 14:31:31;;;;;;;11.85;3.60;;;;;;;;;;5027346;28;20379;-77
2022/12/31 14:34:02;;;;;;;13.98;5.05;;;;;;;;;;5040694;28;20033;-77
2022/12/31 14:36:35;;;;;;;19.63;6.13;;;;;;;;;;5040654;28;20072;-79
2022/12/31 14:39:20;;;;;;;25.80;12.75;;;;;;;;;;5044100;28;20469;-76
2022/12/31 14:42:05;;;;;;;20.75;8.90;;;;;;;;;;5038455;28;20409;-76
2022/12/31 14:44:49;;;;;;;15.95;4.70;;;;;;;;;;5042396;28;20025;-77
2022/12/31 14:47:34;;;;;;;13.05;3.92;;;;;;;;;;5038743;28;20178;-77
2022/12/31 14:50:06;;;;;;;10.77;4.20;;;;;;;;;;5041066;28;20116;-77
2022/12/31 14:52:46;;;;;;;14.48;4.82;;;;;;;;;;5037357;28;20272;-77
2022/12/31 14:55:13;;;;;;;17.80;5.07;;;;;;;;;;5038328;28;20025;-77
2022/12/31 14:57:40;;;;;;;10.77;4.45;;;;;;;;;;5037461;28;20103;-78
2022/12/31 15:00:25;;;;;;;11.02;4.63;;;;;;;;;;5041466;28;20037;-79
2022/12/31 15:02:53;;;;;;;11.50;4.78;;;;;;;;;;5042706;28;20040;-78
2022/12/31 15:05:21;;;;;;;12.40;7.05;;;;;;;;;;5040186;28;20183;-77
2022/12/31 15:07:47;;;;;;;13.10;6.82;;;;;;;;;;5040365;28;20034;-79